sensor_id;sensor_type;location;lat;lon;timestamp;pressure;altitude;pressure_sealevel;temperature;humidity
23589;BME280;11972;48.078;11.876;2023-04-23T00:03:56;94779.81;;;12.97;100.00
23589;BME280;11972;48.078;11.876;2023-04-23T00:07:59;94775.50;;;12.96;100.00
23589;BME280;11972;48.078;11.876;2023-04-23T00:11:59;94772.84;;;12.96;100.00
23589;BME280;11972;48.078;11.876;2023-04-23T00:16:01;94772.28;;;12.94;100.00
23589;BME280;11972;48.078;11.876;2023-04-23T00:20:02;94766.81;;;12.88;100.00
23589;BME280;11972;48.078;11.876;2023-04-23T00:24:02;94773.34;;;12.86;100.00
23589;BME280;11972;48.078;11.876;2023-04-23T00:28:03;94762.97;;;12.84;100.00
23589;BME280;11972;48.078;11.876;2023-04-23T00:32:03;94776.22;;;12.84;100.00
23589;BME280;11972;48.078;11.876;2023-04-23T00:36:04;94763.97;;;12.83;100.00
23589;BME280;11972;48.078;11.876;2023-04-23T00:40:05;94773.75;;;12.83;100.00
23589;BME280;11972;48.078;11.876;2023-04-23T00:44:07;94768.69;;;12.81;100.00
23589;BME280;11972;48.078;11.876;2023-04-23T00:48:08;94758.50;;;12.78;100.00
23589;BME280;11972;48.078;11.876;2023-04-23T00:52:09;94760.56;;;12.76;100.00
23589;BME280;11972;48.078;11.876;2023-04-23T00:56:09;94758.13;;;12.75;100.00
23589;BME280;11972;48.078;11.876;2023-04-23T01:00:11;94765.47;;;12.73;100.00
23589;BME280;11972;48.078;11.876;2023-04-23T01:04:16;94758.59;;;12.65;100.00
23589;BME280;11972;48.078;11.876;2023-04-23T01:08:17;94760.28;;;12.59;100.00
23589;BME280;11972;48.078;11.876;2023-04-23T01:12:18;94763.94;;;12.58;100.00
23589;BME280;11972;48.078;11.876;2023-04-23T01:16:18;94754.59;;;12.56;100.00
23589;BME280;11972;48.078;11.876;2023-04-23T01:20:19;94752.34;;;12.53;100.00
23589;BME280;11972;48.078;11.876;2023-04-23T01:24:19;94753.19;;;12.47;100.00
23589;BME280;11972;48.078;11.876;2023-04-23T01:28:20;94759.56;;;12.39;100.00
23589;BME280;11972;48.078;11.876;2023-04-23T01:32:20;94756.78;;;12.27;100.00
23589;BME280;11972;48.078;11.876;2023-04-23T01:36:22;94761.06;;;12.22;100.00
23589;BME280;11972;48.078;11.876;2023-04-23T01:40:23;94770.25;;;12.19;100.00
23589;BME280;11972;48.078;11.876;2023-04-23T01:44:23;94766.16;;;12.23;100.00
23589;BME280;11972;48.078;11.876;2023-04-23T01:48:24;94763.09;;;12.26;100.00
23589;BME280;11972;48.078;11.876;2023-04-23T01:52:25;94757.38;;;12.29;100.00
23589;BME280;11972;48.078;11.876;2023-04-23T01:56:26;94757.97;;;12.31;100.00
23589;BME280;11972;48.078;11.876;2023-04-23T02:00:27;94752.31;;;12.21;100.00
23589;BME280;11972;48.078;11.876;2023-04-23T02:04:28;94765.78;;;12.13;100.00
23589;BME280;11972;48.078;11.876;2023-04-23T02:08:28;94756.84;;;12.14;100.00
23589;BME280;11972;48.078;11.876;2023-04-23T02:12:29;94751.50;;;12.21;100.00
23589;BME280;11972;48.078;11.876;2023-04-23T02:16:29;94765.31;;;12.29;100.00
23589;BME280;11972;48.078;11.876;2023-04-23T02:20:30;94757.75;;;12.33;100.00
23589;BME280;11972;48.078;11.876;2023-04-23T02:24:30;94748.19;;;12.32;100.00
23589;BME280;11972;48.078;11.876;2023-04-23T02:28:31;94753.50;;;12.32;100.00
23589;BME280;11972;48.078;11.876;2023-04-23T02:32:31;94756.38;;;12.30;100.00
23589;BME280;11972;48.078;11.876;2023-04-23T02:36:31;94757.38;;;12.29;100.00
23589;BME280;11972;48.078;11.876;2023-04-23T02:40:32;94749.41;;;12.29;100.00
23589;BME280;11972;48.078;11.876;2023-04-23T02:44:32;94756.78;;;12.27;100.00
23589;BME280;11972;48.078;11.876;2023-04-23T02:48:38;94751.91;;;12.24;100.00
23589;BME280;11972;48.078;11.876;2023-04-23T02:52:39;94751.91;;;12.24;100.00
23589;BME280;11972;48.078;11.876;2023-04-23T02:56:40;94751.50;;;12.21;100.00
23589;BME280;11972;48.078;11.876;2023-04-23T03:00:40;94745.22;;;12.15;100.00
23589;BME280;11972;48.078;11.876;2023-04-23T03:04:41;94753.59;;;12.05;100.00
23589;BME280;11972;48.078;11.876;2023-04-23T03:08:42;94757.31;;;11.98;100.00
23589;BME280;11972;48.078;11.876;2023-04-23T03:12:42;94757.72;;;11.95;100.00
23589;BME280;11972;48.078;11.876;2023-04-23T03:16:42;94765.47;;;11.89;100.00
23589;BME280;11972;48.078;11.876;2023-04-23T03:20:43;94763.84;;;11.82;100.00
23589;BME280;11972;48.078;11.876;2023-04-23T03:24:43;94766.69;;;11.80;100.00
23589;BME280;11972;48.078;11.876;2023-04-23T03:28:43;94763.03;;;11.81;100.00
23589;BME280;11972;48.078;11.876;2023-04-23T03:32:44;94766.09;;;11.78;100.00
23589;BME280;11972;48.078;11.876;2023-04-23T03:36:45;94775.69;;;11.73;100.00
23589;BME280;11972;48.078;11.876;2023-04-23T03:40:47;94765.91;;;11.73;100.00
23589;BME280;11972;48.078;11.876;2023-04-23T03:44:48;94772.00;;;11.74;100.00
23589;BME280;11972;48.078;11.876;2023-04-23T03:48:48;94782.19;;;11.70;100.00
23589;BME280;11972;48.078;11.876;2023-04-23T03:52:48;94786.25;;;11.66;100.00
23589;BME280;11972;48.078;11.876;2023-04-23T03:56:49;94788.09;;;11.65;100.00
23589;BME280;11972;48.078;11.876;2023-04-23T04:00:49;94790.94;;;11.71;100.00
23589;BME280;11972;48.078;11.876;2023-04-23T04:04:50;94797.03;;;11.71;100.00
23589;BME280;11972;48.078;11.876;2023-04-23T04:08:50;94787.47;;;11.63;100.00
23589;BME280;11972;48.078;11.876;2023-04-23T04:12:51;94798.28;;;11.55;100.00
23589;BME280;11972;48.078;11.876;2023-04-23T04:16:51;94793.59;;;11.51;100.00
23589;BME280;11972;48.078;11.876;2023-04-23T04:20:51;94800.72;;;11.43;100.00
23589;BME280;11972;48.078;11.876;2023-04-23T04:24:53;94796.06;;;11.46;100.00
23589;BME280;11972;48.078;11.876;2023-04-23T04:28:53;94800.13;;;11.48;100.00
23589;BME280;11972;48.078;11.876;2023-04-23T04:32:54;94799.69;;;11.58;100.00
23589;BME280;11972;48.078;11.876;2023-04-23T04:36:54;94813.94;;;11.70;100.00
23589;BME280;11972;48.078;11.876;2023-04-23T04:40:55;94808.81;;;11.75;100.00
23589;BME280;11972;48.078;11.876;2023-04-23T04:44:59;94812.69;;;11.79;100.00
23589;BME280;11972;48.078;11.876;2023-04-23T04:48:59;94815.34;;;11.86;100.00
23589;BME280;11972;48.078;11.876;2023-04-23T04:53:00;94824.69;;;11.88;100.00
23589;BME280;11972;48.078;11.876;2023-04-23T04:57:00;94826.75;;;11.86;100.00
23589;BME280;11972;48.078;11.876;2023-04-23T05:01:01;94830.16;;;11.80;100.00
23589;BME280;11972;48.078;11.876;2023-04-23T05:05:01;94828.16;;;11.82;100.00
23589;BME280;11972;48.078;11.876;2023-04-23T05:09:02;94845.06;;;11.81;100.00
23589;BME280;11972;48.078;11.876;2023-04-23T05:13:03;94861.97;;;11.40;100.00
23589;BME280;11972;48.078;11.876;2023-04-23T05:17:03;94862.72;;;11.01;100.00
23589;BME280;11972;48.078;11.876;2023-04-23T05:21:04;94861.88;;;10.74;100.00
23589;BME280;11972;48.078;11.876;2023-04-23T05:25:06;94869.13;;;10.59;100.00
23589;BME280;11972;48.078;11.876;2023-04-23T05:29:06;94867.50;;;10.58;100.00
23589;BME280;11972;48.078;11.876;2023-04-23T05:33:07;94870.16;;;10.58;100.00
23589;BME280;11972;48.078;11.876;2023-04-23T05:37:07;94874.63;;;10.64;100.00
23589;BME280;11972;48.078;11.876;2023-04-23T05:41:08;94883.00;;;10.74;100.00
23589;BME280;11972;48.078;11.876;2023-04-23T05:45:09;94887.09;;;10.90;100.00
23589;BME280;11972;48.078;11.876;2023-04-23T05:49:09;94896.09;;;11.09;100.00
23589;BME280;11972;48.078;11.876;2023-04-23T05:53:10;94903.63;;;11.25;100.00
23589;BME280;11972;48.078;11.876;2023-04-23T05:57:10;94905.50;;;11.45;100.00
23589;BME280;11972;48.078;11.876;2023-04-23T06:01:11;94913.22;;;11.59;100.00
23589;BME280;11972;48.078;11.876;2023-04-23T06:05:11;94903.44;;;11.60;100.00
23589;BME280;11972;48.078;11.876;2023-04-23T06:09:11;94898.59;;;11.57;100.00
23589;BME280;11972;48.078;11.876;2023-04-23T06:13:12;94906.91;;;11.67;100.00
23589;BME280;11972;48.078;11.876;2023-04-23T06:17:12;94917.69;;;11.72;100.00
23589;BME280;11972;48.078;11.876;2023-04-23T06:21:12;94915.47;;;11.82;100.00
23589;BME280;11972;48.078;11.876;2023-04-23T06:25:13;94920.56;;;11.90;100.00
23589;BME280;11972;48.078;11.876;2023-04-23T06:29:13;94919.75;;;11.97;100.00
23589;BME280;11972;48.078;11.876;2023-04-23T06:33:14;94928.91;;;11.87;100.00
23589;BME280;11972;48.078;11.876;2023-04-23T06:37:14;94924.66;;;11.86;100.00
23589;BME280;11972;48.078;11.876;2023-04-23T06:41:14;94923.81;;;11.79;100.00
23589;BME280;11972;48.078;11.876;2023-04-23T06:45:15;94927.28;;;11.73;100.00
23589;BME280;11972;48.078;11.876;2023-04-23T06:49:15;94928.69;;;11.69;100.00
23589;BME280;11972;48.078;11.876;2023-04-23T06:53:16;94924.59;;;11.60;100.00
23589;BME280;11972;48.078;11.876;2023-04-23T06:57:17;94923.78;;;11.39;100.00
23589;BME280;11972;48.078;11.876;2023-04-23T07:01:18;94920.53;;;11.37;100.00
23589;BME280;11972;48.078;11.876;2023-04-23T07:05:18;94922.16;;;11.38;100.00
23589;BME280;11972;48.078;11.876;2023-04-23T07:09:19;94937.81;;;11.33;100.00
23589;BME280;11972;48.078;11.876;2023-04-23T07:13:19;94934.13;;;11.21;100.00
23589;BME280;11972;48.078;11.876;2023-04-23T07:17:20;94928.63;;;11.16;100.00
23589;BME280;11972;48.078;11.876;2023-04-23T07:21:20;94922.94;;;11.19;100.00
23589;BME280;11972;48.078;11.876;2023-04-23T07:25:24;94923.94;;;11.18;100.00
23589;BME280;11972;48.078;11.876;2023-04-23T07:29:27;94917.63;;;11.06;100.00
23589;BME280;11972;48.078;11.876;2023-04-23T07:33:29;94903.56;;;10.92;100.00
23589;BME280;11972;48.078;11.876;2023-04-23T07:37:29;94911.28;;;10.93;100.00
23589;BME280;11972;48.078;11.876;2023-04-23T07:41:30;94914.59;;;11.09;100.00
23589;BME280;11972;48.078;11.876;2023-04-23T07:45:31;94919.28;;;11.27;100.00
23589;BME280;11972;48.078;11.876;2023-04-23T07:49:31;94918.91;;;11.36;100.00
23589;BME280;11972;48.078;11.876;2023-04-23T07:53:32;94915.25;;;11.51;100.00
23589;BME280;11972;48.078;11.876;2023-04-23T07:57:32;94913.63;;;11.63;100.00
23589;BME280;11972;48.078;11.876;2023-04-23T08:01:33;94914.25;;;11.65;100.00
23589;BME280;11972;48.078;11.876;2023-04-23T08:05:33;94915.03;;;11.72;100.00
23589;BME280;11972;48.078;11.876;2023-04-23T08:09:33;94912.41;;;11.65;100.00
23589;BME280;11972;48.078;11.876;2023-04-23T08:13:34;94911.19;;;11.61;100.00
23589;BME280;11972;48.078;11.876;2023-04-23T08:17:35;94901.03;;;11.85;100.00
23589;BME280;11972;48.078;11.876;2023-04-23T08:21:36;94908.75;;;11.93;100.00
23589;BME280;11972;48.078;11.876;2023-04-23T08:25:36;94906.50;;;12.03;100.00
23589;BME280;11972;48.078;11.876;2023-04-23T08:29:37;94911.19;;;11.68;100.00
23589;BME280;11972;48.078;11.876;2023-04-23T08:33:37;94916.88;;;11.72;100.00
23589;BME280;11972;48.078;11.876;2023-04-23T08:37:37;94904.69;;;11.90;100.00
23589;BME280;11972;48.078;11.876;2023-04-23T08:41:40;94909.53;;;11.80;100.00
23589;BME280;11972;48.078;11.876;2023-04-23T08:45:46;94899.00;;;11.74;100.00
23589;BME280;11972;48.078;11.876;2023-04-23T08:49:47;94887.41;;;11.95;100.00
23589;BME280;11972;48.078;11.876;2023-04-23T08:53:55;94891.19;;;12.25;100.00
23589;BME280;11972;48.078;11.876;2023-04-23T08:57:57;94890.78;;;12.35;100.00
23589;BME280;11972;48.078;11.876;2023-04-23T09:01:57;94899.56;;;12.80;100.00
23589;BME280;11972;48.078;11.876;2023-04-23T09:06:00;94898.94;;;12.78;100.00
23589;BME280;11972;48.078;11.876;2023-04-23T09:10:02;94892.75;;;12.98;100.00
23589;BME280;11972;48.078;11.876;2023-04-23T09:14:03;94891.31;;;13.02;100.00
23589;BME280;11972;48.078;11.876;2023-04-23T09:18:04;94892.53;;;12.99;100.00
23589;BME280;11972;48.078;11.876;2023-04-23T09:22:06;94889.56;;;13.52;100.00
23589;BME280;11972;48.078;11.876;2023-04-23T09:26:07;94880.94;;;13.82;100.00
23589;BME280;11972;48.078;11.876;2023-04-23T09:30:09;94878.94;;;14.02;100.00
23589;BME280;11972;48.078;11.876;2023-04-23T09:34:10;94859.25;;;14.47;100.00
23589;BME280;11972;48.078;11.876;2023-04-23T09:38:10;94868.28;;;14.82;100.00
23589;BME280;11972;48.078;11.876;2023-04-23T09:42:11;94848.31;;;15.33;100.00
23589;BME280;11972;48.078;11.876;2023-04-23T09:46:12;94855.91;;;15.60;100.00
23589;BME280;11972;48.078;11.876;2023-04-23T09:50:13;94848.19;;;15.94;100.00
23589;BME280;11972;48.078;11.876;2023-04-23T09:54:18;94845.94;;;16.37;100.00
23589;BME280;11972;48.078;11.876;2023-04-23T09:58:23;94840.25;;;16.46;100.00
23589;BME280;11972;48.078;11.876;2023-04-23T10:02:27;94832.94;;;16.53;100.00
23589;BME280;11972;48.078;11.876;2023-04-23T10:06:28;94826.19;;;16.62;100.00
23589;BME280;11972;48.078;11.876;2023-04-23T10:10:29;94827.31;;;16.66;100.00
23589;BME280;11972;48.078;11.876;2023-04-23T10:14:29;94814.88;;;16.95;100.00
23589;BME280;11972;48.078;11.876;2023-04-23T10:18:31;94811.75;;;17.32;100.00
23589;BME280;11972;48.078;11.876;2023-04-23T10:22:33;94801.53;;;17.74;100.00
23589;BME280;11972;48.078;11.876;2023-04-23T10:26:36;94789.78;;;18.14;100.00
23589;BME280;11972;48.078;11.876;2023-04-23T10:30:38;94797.63;;;17.99;100.00
23589;BME280;11972;48.078;11.876;2023-04-23T10:34:40;94783.84;;;18.07;100.00
23589;BME280;11972;48.078;11.876;2023-04-23T10:38:41;94776.84;;;18.23;100.00
23589;BME280;11972;48.078;11.876;2023-04-23T10:42:43;94761.56;;;18.67;100.00
23589;BME280;11972;48.078;11.876;2023-04-23T10:46:54;94762.00;;;18.59;100.00
23589;BME280;11972;48.078;11.876;2023-04-23T10:50:59;94767.38;;;18.15;100.00
23589;BME280;11972;48.078;11.876;2023-04-23T10:55:00;94766.63;;;17.81;100.00
23589;BME280;11972;48.078;11.876;2023-04-23T10:59:00;94757.38;;;17.72;100.00
23589;BME280;11972;48.078;11.876;2023-04-23T11:03:01;94752.16;;;17.43;100.00
23589;BME280;11972;48.078;11.876;2023-04-23T11:07:05;94746.38;;;17.68;100.00
23589;BME280;11972;48.078;11.876;2023-04-23T11:11:07;94732.44;;;18.22;100.00
23589;BME280;11972;48.078;11.876;2023-04-23T11:15:16;94730.53;;;18.66;100.00
23589;BME280;11972;48.078;11.876;2023-04-23T11:19:17;94716.19;;;18.72;100.00
23589;BME280;11972;48.078;11.876;2023-04-23T11:23:39;94716.88;;;18.90;100.00
23589;BME280;11972;48.078;11.876;2023-04-23T11:27:43;94715.88;;;18.47;100.00
23589;BME280;11972;48.078;11.876;2023-04-23T11:31:44;94695.97;;;18.87;100.00
23589;BME280;11972;48.078;11.876;2023-04-23T11:35:44;94686.56;;;19.11;100.00
23589;BME280;11972;48.078;11.876;2023-04-23T11:39:45;94691.50;;;19.62;100.00
23589;BME280;11972;48.078;11.876;2023-04-23T11:43:50;94690.41;;;20.15;100.00
23589;BME280;11972;48.078;11.876;2023-04-23T11:47:52;94677.22;;;20.71;100.00
23589;BME280;11972;48.078;11.876;2023-04-23T11:51:58;94668.91;;;20.78;100.00
23589;BME280;11972;48.078;11.876;2023-04-23T11:55:59;94675.06;;;20.68;100.00
23589;BME280;11972;48.078;11.876;2023-04-23T12:00:00;94671.34;;;20.95;100.00
23589;BME280;11972;48.078;11.876;2023-04-23T12:04:15;94670.25;;;20.70;100.00
23589;BME280;11972;48.078;11.876;2023-04-23T12:08:17;94666.13;;;20.42;100.00
23589;BME280;11972;48.078;11.876;2023-04-23T12:12:17;94657.91;;;20.90;100.00
23589;BME280;11972;48.078;11.876;2023-04-23T12:16:42;94650.66;;;21.05;100.00
23589;BME280;11972;48.078;11.876;2023-04-23T12:20:43;94633.97;;;21.54;100.00
23589;BME280;11972;48.078;11.876;2023-04-23T12:24:46;94634.75;;;21.70;100.00
23589;BME280;11972;48.078;11.876;2023-04-23T12:28:55;94634.22;;;21.68;100.00
23589;BME280;11972;48.078;11.876;2023-04-23T12:33:02;94628.63;;;21.39;100.00
23589;BME280;11972;48.078;11.876;2023-04-23T12:37:05;94629.97;;;21.21;100.00
23589;BME280;11972;48.078;11.876;2023-04-23T12:41:06;94623.78;;;21.46;100.00
23589;BME280;11972;48.078;11.876;2023-04-23T12:45:07;94625.66;;;21.30;100.00
23589;BME280;11972;48.078;11.876;2023-04-23T12:49:08;94623.00;;;21.20;100.00
23589;BME280;11972;48.078;11.876;2023-04-23T12:53:09;94612.81;;;20.92;100.00
23589;BME280;11972;48.078;11.876;2023-04-23T12:57:11;94609.84;;;20.68;100.00
23589;BME280;11972;48.078;11.876;2023-04-23T13:01:12;94592.41;;;20.55;100.00
23589;BME280;11972;48.078;11.876;2023-04-23T13:05:13;94580.63;;;20.71;100.00
23589;BME280;11972;48.078;11.876;2023-04-23T13:09:13;94584.91;;;21.03;100.00
23589;BME280;11972;48.078;11.876;2023-04-23T13:13:14;94574.13;;;21.39;100.00
23589;BME280;11972;48.078;11.876;2023-04-23T13:17:14;94566.06;;;21.44;100.00
23589;BME280;11972;48.078;11.876;2023-04-23T13:21:14;94555.66;;;20.55;100.00
23589;BME280;11972;48.078;11.876;2023-04-23T13:25:15;94552.66;;;20.37;100.00
23589;BME280;11972;48.078;11.876;2023-04-23T13:29:15;94540.34;;;20.97;100.00
23589;BME280;11972;48.078;11.876;2023-04-23T13:33:16;94530.25;;;21.59;100.00
23589;BME280;11972;48.078;11.876;2023-04-23T13:37:16;94529.84;;;22.40;100.00
23589;BME280;11972;48.078;11.876;2023-04-23T13:41:16;94520.91;;;22.79;100.00
23589;BME280;11972;48.078;11.876;2023-04-23T13:45:17;94514.56;;;21.86;100.00
23589;BME280;11972;48.078;11.876;2023-04-23T13:49:17;94500.91;;;21.77;100.00
23589;BME280;11972;48.078;11.876;2023-04-23T13:53:17;94488.16;;;22.38;100.00
23589;BME280;11972;48.078;11.876;2023-04-23T13:57:18;94486.06;;;22.64;100.00
23589;BME280;11972;48.078;11.876;2023-04-23T14:01:19;94485.34;;;22.53;100.00
23589;BME280;11972;48.078;11.876;2023-04-23T14:05:19;94477.19;;;21.90;100.00
23589;BME280;11972;48.078;11.876;2023-04-23T14:09:19;94472.03;;;21.98;100.00
23589;BME280;11972;48.078;11.876;2023-04-23T14:13:21;94462.28;;;22.42;100.00
23589;BME280;11972;48.078;11.876;2023-04-23T14:17:21;94461.50;;;22.99;100.00
23589;BME280;11972;48.078;11.876;2023-04-23T14:21:22;94472.34;;;23.42;100.00
23589;BME280;11972;48.078;11.876;2023-04-23T14:25:33;94462.28;;;23.29;100.00
23589;BME280;11972;48.078;11.876;2023-04-23T14:29:45;94449.94;;;22.99;100.00
23589;BME280;11972;48.078;11.876;2023-04-23T14:33:45;94442.22;;;22.63;100.00
23589;BME280;11972;48.078;11.876;2023-04-23T14:37:46;94444.91;;;22.29;100.00
23589;BME280;11972;48.078;11.876;2023-04-23T14:41:46;94445.75;;;21.85;100.00
23589;BME280;11972;48.078;11.876;2023-04-23T14:45:46;94451.66;;;21.38;100.00
23589;BME280;11972;48.078;11.876;2023-04-23T14:49:47;94458.69;;;21.23;100.00
23589;BME280;11972;48.078;11.876;2023-04-23T14:53:47;94441.78;;;21.77;100.00
23589;BME280;11972;48.078;11.876;2023-04-23T14:57:47;94426.69;;;22.55;100.00
23589;BME280;11972;48.078;11.876;2023-04-23T15:01:48;94420.22;;;22.56;100.00
23589;BME280;11972;48.078;11.876;2023-04-23T15:05:48;94427.25;;;22.52;100.00
23589;BME280;11972;48.078;11.876;2023-04-23T15:09:48;94410.50;;;22.60;100.00
23589;BME280;11972;48.078;11.876;2023-04-23T15:17:54;94407.97;;;21.66;100.00
23589;BME280;11972;48.078;11.876;2023-04-23T15:21:54;94409.06;;;21.05;100.00
23589;BME280;11972;48.078;11.876;2023-04-23T15:25:55;94415.91;;;20.62;100.00
23589;BME280;11972;48.078;11.876;2023-04-23T15:29:55;94427.72;;;19.95;100.00
23589;BME280;11972;48.078;11.876;2023-04-23T15:33:56;94437.19;;;19.29;100.00
23589;BME280;11972;48.078;11.876;2023-04-23T15:37:56;94446.13;;;18.88;100.00
23589;BME280;11972;48.078;11.876;2023-04-23T15:41:57;94442.75;;;18.60;100.00
23589;BME280;11972;48.078;11.876;2023-04-23T15:45:57;94452.22;;;18.41;100.00
23589;BME280;11972;48.078;11.876;2023-04-23T15:49:59;94458.53;;;18.24;100.00
23589;BME280;11972;48.078;11.876;2023-04-23T15:54:00;94452.59;;;18.17;100.00
23589;BME280;11972;48.078;11.876;2023-04-23T15:58:01;94446.94;;;18.14;100.00
23589;BME280;11972;48.078;11.876;2023-04-23T16:02:03;94440.97;;;18.39;100.00
23589;BME280;11972;48.078;11.876;2023-04-23T16:06:03;94428.94;;;18.73;100.00
23589;BME280;11972;48.078;11.876;2023-04-23T16:10:05;94412.91;;;19.51;100.00
23589;BME280;11972;48.078;11.876;2023-04-23T16:14:06;94397.16;;;20.26;100.00
23589;BME280;11972;48.078;11.876;2023-04-23T16:18:08;94386.97;;;20.54;100.00
23589;BME280;11972;48.078;11.876;2023-04-23T16:22:08;94368.97;;;21.24;100.00
23589;BME280;11972;48.078;11.876;2023-04-23T16:26:08;94362.41;;;22.24;100.00
23589;BME280;11972;48.078;11.876;2023-04-23T16:30:10;94355.19;;;22.73;100.00
23589;BME280;11972;48.078;11.876;2023-04-23T16:34:11;94339.63;;;22.12;100.00
23589;BME280;11972;48.078;11.876;2023-04-23T16:38:11;94335.81;;;21.00;100.00
23589;BME280;11972;48.078;11.876;2023-04-23T16:42:12;94332.28;;;20.29;100.00
23589;BME280;11972;48.078;11.876;2023-04-23T16:46:13;94337.16;;;19.76;100.00
23589;BME280;11972;48.078;11.876;2023-04-23T16:50:16;94343.53;;;19.45;100.00
23589;BME280;11972;48.078;11.876;2023-04-23T16:54:16;94360.66;;;19.39;100.00
23589;BME280;11972;48.078;11.876;2023-04-23T16:58:17;94379.88;;;19.15;100.00
23589;BME280;11972;48.078;11.876;2023-04-23T17:02:17;94385.53;;;18.66;100.00
23589;BME280;11972;48.078;11.876;2023-04-23T17:06:25;94387.34;;;18.13;100.00
23589;BME280;11972;48.078;11.876;2023-04-23T17:10:26;94387.00;;;17.72;100.00
23589;BME280;11972;48.078;11.876;2023-04-23T17:14:26;94380.31;;;17.43;100.00
23589;BME280;11972;48.078;11.876;2023-04-23T17:18:27;94369.34;;;17.12;100.00
23589;BME280;11972;48.078;11.876;2023-04-23T17:22:27;94355.19;;;16.84;100.00
23589;BME280;11972;48.078;11.876;2023-04-23T17:26:28;94346.03;;;16.58;100.00
23589;BME280;11972;48.078;11.876;2023-04-23T17:30:28;94336.72;;;16.39;100.00
23589;BME280;11972;48.078;11.876;2023-04-23T17:34:29;94330.06;;;16.20;100.00
23589;BME280;11972;48.078;11.876;2023-04-23T17:38:30;94310.19;;;16.05;100.00
23589;BME280;11972;48.078;11.876;2023-04-23T17:42:30;94283.06;;;15.92;100.00
23589;BME280;11972;48.078;11.876;2023-04-23T17:46:30;94301.81;;;15.80;100.00
23589;BME280;11972;48.078;11.876;2023-04-23T17:50:31;94323.09;;;15.63;100.00
23589;BME280;11972;48.078;11.876;2023-04-23T17:54:31;94314.63;;;15.32;100.00
23589;BME280;11972;48.078;11.876;2023-04-23T17:58:32;94314.53;;;15.10;100.00
23589;BME280;11972;48.078;11.876;2023-04-23T18:02:32;94308.50;;;14.86;100.00
23589;BME280;11972;48.078;11.876;2023-04-23T18:06:38;94298.44;;;14.60;100.00
23589;BME280;11972;48.078;11.876;2023-04-23T18:10:39;94298.72;;;14.35;100.00
23589;BME280;11972;48.078;11.876;2023-04-23T18:14:39;94293.22;;;14.13;100.00
23589;BME280;11972;48.078;11.876;2023-04-23T18:18:41;94297.75;;;13.89;100.00
23589;BME280;11972;48.078;11.876;2023-04-23T18:22:42;94301.34;;;13.71;100.00
23589;BME280;11972;48.078;11.876;2023-04-23T18:26:43;94307.34;;;13.55;100.00
23589;BME280;11972;48.078;11.876;2023-04-23T18:30:43;94311.59;;;13.44;100.00
23589;BME280;11972;48.078;11.876;2023-04-23T18:34:45;94322.00;;;13.46;100.00
23589;BME280;11972;48.078;11.876;2023-04-23T18:38:46;94328.66;;;13.48;100.00
23589;BME280;11972;48.078;11.876;2023-04-23T18:42:46;94328.31;;;13.45;100.00
23589;BME280;11972;48.078;11.876;2023-04-23T18:46:47;94341.56;;;13.33;100.00
23589;BME280;11972;48.078;11.876;2023-04-23T18:50:48;94341.66;;;13.26;100.00
23589;BME280;11972;48.078;11.876;2023-04-23T18:54:51;94337.81;;;13.22;100.00
23589;BME280;11972;48.078;11.876;2023-04-23T18:58:51;94331.50;;;13.23;100.00
23589;BME280;11972;48.078;11.876;2023-04-23T19:02:52;94339.59;;;13.28;100.00
23589;BME280;11972;48.078;11.876;2023-04-23T19:06:52;94344.44;;;13.31;100.00
23589;BME280;11972;48.078;11.876;2023-04-23T19:10:56;94361.50;;;13.35;100.00
23589;BME280;11972;48.078;11.876;2023-04-23T19:14:56;94398.19;;;13.38;100.00
23589;BME280;11972;48.078;11.876;2023-04-23T19:18:56;94411.44;;;13.38;100.00
23589;BME280;11972;48.078;11.876;2023-04-23T19:22:57;94457.28;;;13.27;100.00
23589;BME280;11972;48.078;11.876;2023-04-23T19:26:57;94474.25;;;12.71;100.00
23589;BME280;11972;48.078;11.876;2023-04-23T19:30:58;94469.53;;;12.55;100.00
23589;BME280;11972;48.078;11.876;2023-04-23T19:34:58;94488.34;;;12.47;100.00
23589;BME280;11972;48.078;11.876;2023-04-23T19:38:59;94488.81;;;11.62;100.00
23589;BME280;11972;48.078;11.876;2023-04-23T19:42:59;94500.44;;;11.23;100.00
23589;BME280;11972;48.078;11.876;2023-04-23T19:47:00;94510.28;;;11.02;100.00
23589;BME280;11972;48.078;11.876;2023-04-23T19:51:00;94529.44;;;10.91;100.00
23589;BME280;11972;48.078;11.876;2023-04-23T19:55:01;94550.13;;;11.01;100.00
23589;BME280;11972;48.078;11.876;2023-04-23T19:59:01;94558.91;;;10.95;100.00
23589;BME280;11972;48.078;11.876;2023-04-23T20:03:02;94550.22;;;10.61;100.00
23589;BME280;11972;48.078;11.876;2023-04-23T20:07:02;94553.91;;;10.27;100.00
23589;BME280;11972;48.078;11.876;2023-04-23T20:11:03;94553.47;;;10.10;100.00
23589;BME280;11972;48.078;11.876;2023-04-23T20:15:03;94556.91;;;10.04;100.00
23589;BME280;11972;48.078;11.876;2023-04-23T20:19:04;94556.09;;;10.03;100.00
23589;BME280;11972;48.078;11.876;2023-04-23T20:23:09;94545.75;;;10.02;100.00
23589;BME280;11972;48.078;11.876;2023-04-23T20:27:10;94552.66;;;10.03;100.00
23589;BME280;11972;48.078;11.876;2023-04-23T20:31:11;94548.41;;;10.02;100.00
23589;BME280;11972;48.078;11.876;2023-04-23T20:35:11;94551.03;;;10.02;100.00
23589;BME280;11972;48.078;11.876;2023-04-23T20:39:12;94549.41;;;10.01;100.00
23589;BME280;11972;48.078;11.876;2023-04-23T20:43:12;94535.59;;;9.99;100.00
23589;BME280;11972;48.078;11.876;2023-04-23T20:47:13;94548.41;;;10.02;100.00
23589;BME280;11972;48.078;11.876;2023-04-23T20:51:15;94560.75;;;10.08;100.00